createdAt,value
2023-03-27T00:01:02.640Z,78.24
2023-03-27T00:02:57.525Z,78.03
2023-03-27T00:04:50.535Z,78.01
2023-03-27T00:06:45.779Z,78.12
2023-03-27T00:08:38.954Z,77.89
2023-03-27T00:10:32.398Z,77.83
2023-03-27T00:12:25.346Z,77.60
2023-03-27T00:14:18.188Z,77.57
2023-03-27T00:16:11.775Z,77.43
2023-03-27T00:18:04.706Z,77.42
2023-03-27T00:19:57.644Z,77.57
2023-03-27T00:21:50.495Z,77.66
2023-03-27T00:23:43.448Z,77.58
2023-03-27T00:25:37.084Z,77.47
2023-03-27T00:27:29.947Z,77.45
2023-03-27T00:29:22.800Z,77.58
2023-03-27T00:31:17.007Z,77.60
2023-03-27T00:33:13.403Z,77.60
2023-03-27T00:35:07.482Z,77.31
2023-03-27T00:37:00.528Z,77.15
2023-03-27T00:38:53.480Z,76.99
2023-03-27T00:40:48.287Z,76.89
2023-03-27T00:42:42.447Z,76.71
2023-03-27T00:44:36.080Z,76.63
2023-03-27T00:46:42.519Z,76.53
2023-03-27T00:48:37.724Z,76.76
2023-03-27T00:50:39.635Z,76.87
2023-03-27T00:52:33.410Z,76.80
2023-03-27T00:54:30.243Z,76.77
2023-03-27T00:56:24.027Z,76.69
2023-03-27T00:58:22.011Z,76.83
2023-03-27T01:00:17.128Z,76.90
2023-03-27T01:02:10.737Z,76.90
2023-03-27T01:04:07.443Z,76.95
2023-03-27T01:06:02.161Z,77.17
2023-03-27T01:08:01.096Z,77.21
2023-03-27T01:09:56.660Z,77.02
2023-03-27T01:12:03.144Z,76.93
2023-03-27T01:14:12.249Z,76.93
2023-03-27T01:16:14.470Z,76.69
2023-03-27T01:18:25.895Z,76.38
2023-03-27T01:20:54.191Z,76.40
2023-03-27T01:22:56.133Z,76.41
2023-03-27T01:25:22.679Z,76.28
2023-03-27T01:27:22.473Z,76.36
2023-03-27T01:29:42.041Z,76.33
2023-03-27T01:32:06.347Z,76.07
2023-03-27T01:34:26.518Z,75.84
2023-03-27T01:36:57.557Z,75.67
2023-03-27T01:39:19.930Z,75.69
2023-03-27T01:41:27.963Z,75.47
2023-03-27T01:43:32.834Z,75.59
2023-03-27T01:45:34.946Z,75.26
2023-03-27T01:47:52.838Z,75.36
2023-03-27T01:49:53.584Z,75.26
2023-03-27T01:51:55.616Z,75.40
2023-03-27T01:53:56.332Z,75.17
2023-03-27T01:55:54.432Z,74.91
2023-03-27T01:58:00.846Z,74.93
2023-03-27T02:00:18.002Z,74.80
2023-03-27T02:02:30.032Z,74.80
2023-03-27T02:04:35.980Z,75.04
2023-03-27T02:06:39.134Z,75.14
2023-03-27T02:08:58.702Z,75.00
2023-03-27T02:10:56.908Z,75.00
2023-03-27T02:12:59.446Z,74.94
2023-03-27T02:15:23.848Z,74.93
2023-03-27T02:17:18.621Z,74.86
2023-03-27T02:19:23.351Z,74.87
2023-03-27T02:21:16.401Z,74.80
2023-03-27T02:23:09.932Z,74.77
2023-03-27T02:25:04.981Z,74.81
2023-03-27T02:27:13.062Z,74.94
2023-03-27T02:29:27.976Z,74.90
2023-03-27T02:31:36.716Z,75.01
2023-03-27T02:33:39.555Z,75.08
2023-03-27T02:35:44.826Z,75.23
2023-03-27T02:38:08.454Z,75.15
2023-03-27T02:40:42.750Z,74.78
2023-03-27T02:43:07.650Z,75.10
2023-03-27T02:45:30.111Z,74.94
2023-03-27T02:47:33.196Z,74.97
2023-03-27T02:49:35.231Z,75.12
2023-03-27T02:51:41.184Z,75.11
2023-03-27T02:53:51.235Z,74.89
2023-03-27T02:55:54.316Z,74.82
2023-03-27T02:57:52.187Z,74.98
2023-03-27T02:59:56.804Z,75.07
2023-03-27T03:01:49.960Z,75.17
2023-03-27T03:03:58.489Z,75.41
2023-03-27T03:06:11.525Z,75.23
2023-03-27T03:08:05.773Z,75.29
2023-03-27T03:09:58.835Z,75.36
2023-03-27T03:11:53.963Z,75.32
2023-03-27T03:13:47.380Z,75.17
2023-03-27T03:15:40.350Z,75.00
2023-03-27T03:17:33.281Z,74.83
2023-03-27T03:19:26.426Z,74.80
2023-03-27T03:21:20.099Z,74.86
2023-03-27T03:23:12.914Z,74.82
2023-03-27T03:25:08.020Z,74.72
2023-03-27T03:27:05.040Z,74.54
2023-03-27T03:29:05.097Z,73.78
2023-03-27T03:31:03.396Z,73.80
2023-03-27T03:32:57.722Z,73.73
2023-03-27T03:34:50.800Z,73.52
2023-03-27T03:36:49.798Z,73.56
2023-03-27T03:38:46.837Z,73.39
2023-03-27T03:40:40.192Z,73.08
2023-03-27T03:42:33.344Z,72.85
2023-03-27T03:44:28.749Z,72.35
2023-03-27T03:46:22.410Z,72.38
2023-03-27T03:48:17.312Z,72.11
2023-03-27T03:50:11.895Z,72.31
2023-03-27T03:52:05.216Z,72.26
2023-03-27T03:53:59.431Z,72.03
2023-03-27T03:55:53.609Z,71.85
2023-03-27T03:57:50.343Z,71.89
2023-03-27T03:59:50.388Z,71.63
2023-03-27T04:02:12.663Z,71.74
2023-03-27T04:04:08.509Z,71.88
2023-03-27T04:06:25.793Z,71.97
2023-03-27T04:08:23.521Z,71.95
2023-03-27T04:10:39.785Z,71.83
2023-03-27T04:12:38.671Z,71.68
2023-03-27T04:14:36.544Z,71.81
2023-03-27T04:16:34.130Z,71.63
2023-03-27T04:18:43.284Z,71.55
2023-03-27T04:21:00.188Z,71.70
2023-03-27T04:23:14.471Z,71.94
2023-03-27T04:25:08.385Z,72.00
2023-03-27T04:27:04.481Z,72.04
2023-03-27T04:29:17.587Z,72.09
2023-03-27T04:31:26.423Z,72.27
2023-03-27T04:33:39.983Z,72.13
2023-03-27T04:36:07.837Z,73.28
2023-03-27T04:38:26.221Z,72.63
2023-03-27T04:40:21.607Z,72.37
2023-03-27T04:42:15.227Z,72.50
2023-03-27T04:44:09.165Z,72.56
2023-03-27T04:46:06.777Z,72.52
2023-03-27T04:48:00.499Z,72.48
2023-03-27T04:49:53.424Z,72.45
2023-03-27T04:51:49.550Z,72.78
2023-03-27T04:53:43.460Z,72.48
2023-03-27T04:55:40.714Z,72.56
2023-03-27T04:57:34.896Z,72.61
2023-03-27T04:59:32.113Z,72.69
2023-03-27T05:01:51.710Z,72.58
2023-03-27T05:04:05.129Z,72.67
2023-03-27T05:06:12.213Z,72.60
2023-03-27T05:08:05.985Z,72.61
2023-03-27T05:09:59.163Z,72.72
2023-03-27T05:11:53.942Z,72.78
2023-03-27T05:13:47.283Z,72.78
2023-03-27T05:15:41.972Z,72.74
2023-03-27T05:17:44.768Z,72.37
2023-03-27T05:19:39.341Z,72.55
2023-03-27T05:21:32.325Z,72.59
2023-03-27T05:23:28.611Z,72.70
2023-03-27T05:25:22.945Z,72.22
2023-03-27T05:27:15.838Z,72.15
2023-03-27T05:29:10.321Z,72.23
2023-03-27T05:31:05.750Z,72.32
2023-03-27T05:33:08.038Z,71.83
2023-03-27T05:35:01.967Z,71.67
2023-03-27T05:36:59.011Z,71.09
2023-03-27T05:38:54.210Z,70.99
2023-03-27T05:41:10.916Z,71.20
2023-03-27T05:43:07.552Z,70.93
2023-03-27T05:45:01.319Z,70.99
2023-03-27T05:46:54.578Z,70.80
2023-03-27T05:48:53.565Z,70.56
2023-03-27T05:50:46.637Z,70.45
2023-03-27T05:52:46.779Z,70.59
2023-03-27T05:54:39.783Z,70.81
2023-03-27T05:56:36.464Z,70.70
2023-03-27T05:58:30.594Z,70.70
2023-03-27T06:00:31.889Z,70.68
2023-03-27T06:02:25.474Z,70.52
2023-03-27T06:04:23.165Z,70.28
2023-03-27T06:06:22.655Z,70.33
2023-03-27T06:08:19.604Z,70.03
2023-03-27T06:10:17.964Z,70.24
2023-03-27T06:12:30.177Z,70.16
2023-03-27T06:14:29.180Z,69.11
2023-03-27T06:16:34.842Z,68.98
2023-03-27T06:18:50.404Z,68.24
2023-03-27T06:20:45.351Z,68.42
2023-03-27T06:22:45.428Z,67.89
2023-03-27T06:24:39.024Z,68.04
2023-03-27T06:26:31.909Z,67.59
2023-03-27T06:28:26.546Z,67.19
2023-03-27T06:30:22.723Z,66.86
2023-03-27T06:32:36.629Z,65.82
2023-03-27T06:34:33.509Z,64.69
2023-03-27T06:36:39.777Z,64.74
2023-03-27T06:38:33.141Z,65.13
2023-03-27T06:40:28.951Z,64.07
2023-03-27T06:42:24.859Z,62.85
2023-03-27T06:44:25.145Z,63.26
2023-03-27T06:46:32.195Z,62.44
2023-03-27T06:48:55.132Z,60.84
2023-03-27T06:50:50.621Z,60.44
2023-03-27T06:52:43.668Z,60.49
2023-03-27T06:54:56.900Z,60.71
2023-03-27T06:56:49.878Z,60.33
2023-03-27T06:58:47.189Z,59.76
2023-03-27T07:00:41.982Z,60.30
2023-03-27T07:02:43.776Z,59.65
2023-03-27T07:05:05.315Z,58.33
2023-03-27T07:07:07.422Z,58.13
2023-03-27T07:09:02.741Z,58.81
2023-03-27T07:11:10.583Z,57.41
2023-03-27T07:13:10.431Z,56.68
2023-03-27T07:15:06.262Z,56.49
2023-03-27T07:16:59.284Z,56.37
2023-03-27T07:18:54.694Z,56.88
2023-03-27T07:20:50.505Z,55.70
2023-03-27T07:22:46.223Z,55.88
2023-03-27T07:24:49.623Z,55.99
2023-03-27T07:26:42.666Z,55.77
2023-03-27T07:28:40.842Z,56.04
2023-03-27T07:30:37.061Z,55.89
2023-03-27T07:32:36.778Z,55.58
2023-03-27T07:34:31.556Z,53.77
2023-03-27T07:36:47.206Z,53.28
2023-03-27T07:38:42.245Z,54.11
2023-03-27T07:40:46.713Z,53.65
2023-03-27T07:43:15.719Z,53.66
2023-03-27T07:45:10.132Z,53.02
2023-03-27T07:47:03.534Z,51.75
2023-03-27T07:48:57.664Z,53.07
2023-03-27T07:50:51.847Z,53.72
2023-03-27T07:52:52.884Z,54.18
2023-03-27T07:54:48.394Z,54.31
2023-03-27T07:56:42.208Z,53.78
2023-03-27T07:59:02.551Z,52.73
2023-03-27T08:01:03.051Z,51.74
2023-03-27T08:03:10.260Z,50.60
2023-03-27T08:05:07.121Z,49.91
2023-03-27T08:07:00.762Z,50.32
2023-03-27T08:08:53.714Z,50.83
2023-03-27T08:10:47.709Z,50.71
2023-03-27T08:12:45.665Z,50.70
2023-03-27T08:14:38.802Z,50.87
2023-03-27T08:16:42.654Z,52.19
2023-03-27T08:18:36.864Z,52.67
2023-03-27T08:20:31.114Z,53.51
2023-03-27T08:22:24.831Z,53.94
2023-03-27T08:24:36.231Z,54.09
2023-03-27T08:26:34.149Z,54.07
2023-03-27T08:28:35.711Z,54.64
2023-03-27T08:30:29.273Z,54.21
2023-03-27T08:32:23.041Z,54.38
2023-03-27T08:34:17.742Z,54.31
2023-03-27T08:36:14.586Z,55.04
2023-03-27T08:38:20.010Z,55.04
2023-03-27T08:40:40.002Z,54.12
2023-03-27T08:42:56.609Z,53.70
2023-03-27T08:44:55.085Z,53.17
2023-03-27T08:47:33.818Z,52.55
2023-03-27T08:49:41.873Z,52.93
2023-03-27T08:52:01.596Z,51.22
2023-03-27T08:54:08.056Z,51.04
2023-03-27T08:56:03.133Z,48.60
2023-03-27T08:58:03.487Z,48.35
2023-03-27T09:00:01.415Z,48.09
2023-03-27T09:02:07.657Z,47.95
2023-03-27T09:04:43.146Z,47.62
2023-03-27T09:06:48.379Z,47.39
2023-03-27T09:09:04.574Z,47.23
2023-03-27T09:11:13.188Z,47.23
2023-03-27T09:13:21.941Z,45.58
2023-03-27T09:15:53.126Z,45.10
2023-03-27T09:17:51.052Z,45.40
2023-03-27T09:19:58.142Z,43.44
2023-03-27T09:22:04.298Z,43.62
2023-03-27T09:24:30.280Z,44.20
2023-03-27T09:27:04.541Z,44.45
2023-03-27T09:29:26.814Z,42.92
2023-03-27T09:31:33.536Z,44.47
2023-03-27T09:33:27.368Z,44.62
2023-03-27T09:35:21.493Z,44.44
2023-03-27T09:37:17.977Z,44.62
2023-03-27T09:39:17.244Z,43.96
2023-03-27T09:41:15.236Z,44.51
2023-03-27T09:43:13.647Z,44.90
2023-03-27T09:45:12.827Z,45.16
2023-03-27T09:47:27.327Z,45.58
2023-03-27T09:49:23.633Z,44.42
2023-03-27T09:51:46.637Z,44.44
2023-03-27T09:54:17.982Z,46.05
2023-03-27T09:56:16.407Z,46.92
2023-03-27T09:58:32.046Z,47.25
2023-03-27T10:00:30.900Z,47.03
2023-03-27T10:02:30.746Z,46.21
2023-03-27T10:04:26.667Z,47.35
2023-03-27T10:06:27.696Z,47.60
2023-03-27T10:08:37.958Z,46.96
2023-03-27T10:10:45.299Z,46.25
2023-03-27T10:13:06.309Z,45.84
2023-03-27T10:15:07.174Z,46.46
2023-03-27T10:17:05.251Z,46.13
2023-03-27T10:19:00.532Z,46.20
2023-03-27T10:20:58.769Z,45.67
2023-03-27T10:22:56.789Z,45.75
2023-03-27T10:24:58.168Z,46.40
2023-03-27T10:27:21.417Z,46.99
2023-03-27T10:29:35.640Z,47.19
2023-03-27T10:31:34.612Z,47.85
2023-03-27T10:33:39.797Z,46.93
2023-03-27T10:35:44.109Z,47.08
2023-03-27T10:37:50.178Z,46.52
2023-03-27T10:40:16.469Z,46.36
2023-03-27T10:42:10.332Z,46.57
2023-03-27T10:44:16.616Z,47.39
2023-03-27T10:46:19.240Z,47.60
2023-03-27T10:48:30.854Z,47.65
2023-03-27T10:50:31.180Z,48.04
2023-03-27T10:52:39.863Z,48.50
2023-03-27T10:54:51.372Z,47.92
2023-03-27T10:57:26.926Z,47.75
2023-03-27T10:59:41.959Z,46.38
2023-03-27T11:01:53.819Z,44.54
2023-03-27T11:03:54.014Z,44.47
2023-03-27T11:05:49.492Z,45.59
2023-03-27T11:08:38.159Z,45.50
2023-03-27T11:10:37.805Z,44.02
2023-03-27T11:12:35.008Z,44.16
2023-03-27T11:14:38.709Z,43.47
2023-03-27T11:16:41.300Z,41.88
2023-03-27T11:19:09.583Z,42.71
2023-03-27T11:21:46.031Z,40.56
2023-03-27T11:23:46.485Z,41.49
2023-03-27T11:25:53.746Z,41.94
2023-03-27T11:28:16.174Z,41.89
2023-03-27T11:30:10.293Z,42.25
2023-03-27T11:32:33.945Z,41.40
2023-03-27T11:34:53.905Z,40.91
2023-03-27T11:37:09.807Z,42.34
2023-03-27T11:39:22.990Z,43.67
2023-03-27T11:41:16.575Z,43.51
2023-03-27T11:43:12.697Z,44.04
2023-03-27T11:45:09.485Z,43.88
2023-03-27T11:47:37.345Z,44.72
2023-03-27T11:50:11.601Z,44.65
2023-03-27T11:52:33.559Z,43.73
2023-03-27T11:55:06.942Z,44.35
2023-03-27T11:57:04.106Z,44.05
2023-03-27T12:00:02.016Z,43.62
2023-03-27T12:02:28.032Z,44.21
2023-03-27T12:04:37.759Z,44.11
2023-03-27T12:07:04.815Z,44.71
2023-03-27T12:09:24.347Z,44.41
2023-03-27T12:11:46.152Z,43.85
2023-03-27T12:14:02.117Z,44.01
2023-03-27T12:16:22.359Z,44.73
2023-03-27T12:18:54.445Z,45.17
2023-03-27T12:21:11.139Z,45.02
2023-03-27T12:23:26.392Z,44.31
2023-03-27T12:26:04.906Z,44.64
2023-03-27T12:28:59.806Z,46.55
2023-03-27T12:31:24.976Z,46.11
2023-03-27T12:33:32.087Z,45.68
2023-03-27T12:35:28.350Z,45.84
2023-03-27T12:37:27.373Z,45.84
2023-03-27T12:39:26.106Z,45.44
2023-03-27T12:41:25.573Z,45.52
2023-03-27T12:43:48.519Z,45.82
2023-03-27T12:46:41.067Z,46.49
2023-03-27T12:48:56.869Z,47.49
2023-03-27T12:50:56.682Z,49.54
2023-03-27T12:52:51.993Z,50.68
2023-03-27T12:55:18.536Z,51.98
2023-03-27T12:57:25.283Z,53.02
2023-03-27T12:59:26.953Z,53.54
2023-03-27T13:01:51.817Z,53.40
2023-03-27T13:04:15.007Z,53.34
2023-03-27T13:06:44.561Z,53.70
2023-03-27T13:09:02.538Z,53.59
2023-03-27T13:11:19.784Z,51.63
2023-03-27T13:13:32.652Z,51.55
2023-03-27T13:15:38.928Z,51.99
2023-03-27T13:17:42.192Z,52.05
2023-03-27T13:20:10.510Z,50.70
2023-03-27T13:22:09.493Z,49.02
2023-03-27T13:24:10.120Z,49.98
2023-03-27T13:26:22.732Z,49.83
2023-03-27T13:28:39.369Z,48.06
2023-03-27T13:30:51.702Z,46.93
2023-03-27T13:33:29.536Z,47.10
2023-03-27T13:35:22.658Z,47.19
2023-03-27T13:37:38.162Z,47.16
2023-03-27T13:39:40.540Z,47.67
2023-03-27T13:41:57.188Z,47.53
2023-03-27T13:44:34.232Z,46.96
2023-03-27T13:46:31.027Z,48.17
2023-03-27T13:48:34.658Z,51.16
2023-03-27T13:50:47.677Z,53.32
2023-03-27T13:53:18.692Z,54.01
2023-03-27T13:56:01.753Z,54.30
2023-03-27T13:58:53.877Z,53.89
2023-03-27T14:01:09.553Z,50.11
2023-03-27T14:03:34.964Z,49.91
2023-03-27T14:05:41.561Z,49.00
2023-03-27T14:07:53.968Z,48.51
2023-03-27T14:09:53.936Z,48.02
2023-03-27T14:12:16.698Z,47.05
2023-03-27T14:14:52.958Z,45.93
2023-03-27T14:17:21.130Z,44.32
2023-03-27T14:19:48.902Z,42.42
2023-03-27T14:22:11.953Z,40.50
2023-03-27T14:24:28.247Z,40.82
2023-03-27T14:26:31.639Z,39.52
2023-03-27T14:28:35.144Z,39.00
2023-03-27T14:30:43.002Z,40.17
2023-03-27T14:32:50.703Z,39.12
2023-03-27T14:34:54.295Z,39.22
2023-03-27T14:37:29.410Z,38.88
2023-03-27T14:39:39.015Z,38.76
2023-03-27T14:41:57.361Z,39.70
2023-03-27T14:43:54.511Z,39.83
2023-03-27T14:45:53.309Z,39.27
2023-03-27T14:48:26.116Z,38.77
2023-03-27T14:50:20.172Z,38.88
2023-03-27T14:52:35.184Z,38.79
2023-03-27T14:54:54.372Z,39.14
2023-03-27T14:56:51.651Z,39.78
2023-03-27T14:59:03.711Z,39.13
2023-03-27T15:01:17.309Z,40.14
2023-03-27T15:03:19.105Z,40.65
2023-03-27T15:05:16.464Z,40.25
2023-03-27T15:07:18.773Z,37.48
2023-03-27T15:09:19.542Z,36.61
2023-03-27T15:11:39.148Z,36.75
2023-03-27T15:14:02.583Z,36.54
2023-03-27T15:16:01.069Z,36.83
2023-03-27T15:17:59.899Z,36.66
2023-03-27T15:20:14.732Z,35.87
2023-03-27T15:22:21.168Z,35.49
2023-03-27T15:24:21.588Z,35.58
2023-03-27T15:26:21.732Z,36.23
2023-03-27T15:28:24.433Z,36.58
2023-03-27T15:30:37.923Z,37.56
2023-03-27T15:32:44.813Z,37.70
2023-03-27T15:34:49.105Z,37.83
2023-03-27T15:36:43.769Z,37.14
2023-03-27T15:38:38.285Z,36.70
2023-03-27T15:40:40.900Z,37.26
2023-03-27T15:42:52.745Z,37.28
2023-03-27T15:44:45.800Z,38.17
2023-03-27T15:46:58.937Z,38.39
2023-03-27T15:48:56.508Z,37.99
2023-03-27T15:51:00.508Z,37.69
2023-03-27T15:52:57.321Z,37.59
2023-03-27T15:54:54.980Z,38.13
2023-03-27T15:56:47.958Z,37.74
2023-03-27T15:59:04.437Z,38.59
2023-03-27T16:01:02.997Z,38.40
2023-03-27T16:03:18.625Z,38.25
2023-03-27T16:05:16.505Z,38.39
2023-03-27T16:07:26.802Z,38.58
2023-03-27T16:09:28.661Z,38.77
2023-03-27T16:11:33.904Z,39.24
2023-03-27T16:13:27.889Z,39.28
2023-03-27T16:15:40.703Z,39.38
2023-03-27T16:17:41.179Z,39.67
2023-03-27T16:19:42.203Z,39.94
2023-03-27T16:21:36.243Z,40.40
2023-03-27T16:23:29.064Z,40.92
2023-03-27T16:25:22.012Z,41.16
2023-03-27T16:27:15.778Z,40.79
2023-03-27T16:29:10.582Z,41.24
2023-03-27T16:31:12.481Z,41.35
2023-03-27T16:33:17.187Z,40.80
2023-03-27T16:35:10.306Z,40.61
2023-03-27T16:37:03.538Z,40.45
2023-03-27T16:38:56.714Z,40.62
2023-03-27T16:40:49.884Z,40.76
2023-03-27T16:42:43.028Z,41.26
2023-03-27T16:44:36.278Z,41.16
2023-03-27T16:46:31.582Z,41.07
2023-03-27T16:48:24.424Z,41.10
2023-03-27T16:50:20.523Z,41.48
2023-03-27T16:52:13.494Z,41.77
2023-03-27T16:54:07.057Z,41.99
2023-03-27T16:56:00.222Z,41.84
2023-03-27T16:57:54.283Z,42.26
2023-03-27T16:59:47.132Z,41.92
2023-03-27T17:01:40.162Z,42.02
2023-03-27T17:03:33.950Z,42.18
2023-03-27T17:05:26.899Z,42.00
2023-03-27T17:07:20.378Z,42.22
2023-03-27T17:09:13.306Z,42.29
2023-03-27T17:11:11.777Z,42.66
2023-03-27T17:13:04.741Z,43.41
2023-03-27T17:14:57.988Z,43.39
2023-03-27T17:16:51.784Z,42.98
2023-03-27T17:18:45.418Z,43.25
2023-03-27T17:20:38.784Z,43.00
2023-03-27T17:22:33.699Z,43.12
2023-03-27T17:24:32.531Z,42.88
2023-03-27T17:26:29.125Z,42.93
2023-03-27T17:28:22.142Z,43.49
2023-03-27T17:30:21.436Z,43.32
2023-03-27T17:32:20.335Z,43.35
2023-03-27T17:34:13.980Z,43.39
2023-03-27T17:36:15.138Z,43.39
2023-03-27T17:38:09.512Z,43.47
2023-03-27T17:40:07.276Z,43.93
2023-03-27T17:42:00.542Z,43.94
2023-03-27T17:43:53.950Z,43.59
2023-03-27T17:45:48.060Z,43.58
2023-03-27T17:47:40.935Z,43.41
2023-03-27T17:49:34.988Z,43.51
2023-03-27T17:51:28.241Z,43.91
2023-03-27T17:53:21.499Z,43.96
2023-03-27T17:55:14.852Z,44.06
2023-03-27T17:57:08.317Z,44.39
2023-03-27T17:59:02.489Z,44.48
2023-03-27T18:00:55.645Z,44.50
2023-03-27T18:02:49.390Z,44.66
2023-03-27T18:04:43.179Z,44.70
2023-03-27T18:06:36.842Z,45.00
2023-03-27T18:08:31.137Z,45.32
2023-03-27T18:10:25.343Z,45.63
2023-03-27T18:12:20.109Z,45.81
2023-03-27T18:14:13.468Z,45.72
2023-03-27T18:16:11.320Z,46.05
2023-03-27T18:18:06.233Z,46.14
2023-03-27T18:20:00.708Z,46.27
2023-03-27T18:21:54.087Z,46.99
2023-03-27T18:23:47.812Z,47.46
2023-03-27T18:25:43.125Z,47.62
2023-03-27T18:27:40.161Z,47.73
2023-03-27T18:29:34.433Z,47.84
2023-03-27T18:31:27.730Z,48.07
2023-03-27T18:33:21.009Z,48.26
2023-03-27T18:35:16.424Z,48.50
2023-03-27T18:37:14.566Z,48.91
2023-03-27T18:39:09.110Z,49.26
2023-03-27T18:41:02.775Z,49.48
2023-03-27T18:42:56.214Z,49.89
2023-03-27T18:44:49.695Z,49.34
2023-03-27T18:46:43.883Z,49.64
2023-03-27T18:48:36.933Z,50.01
2023-03-27T18:50:31.512Z,50.01
2023-03-27T18:52:25.584Z,50.20
2023-03-27T18:54:18.948Z,50.84
2023-03-27T18:56:14.186Z,51.17
2023-03-27T18:58:07.811Z,51.49
2023-03-27T19:00:01.737Z,51.86
2023-03-27T19:01:54.821Z,52.39
2023-03-27T19:03:49.193Z,52.61
2023-03-27T19:05:45.129Z,52.48
2023-03-27T19:07:38.415Z,52.53
2023-03-27T19:09:41.391Z,52.86
2023-03-27T19:11:35.138Z,52.92
2023-03-27T19:13:57.887Z,53.33
2023-03-27T19:15:55.852Z,53.37
2023-03-27T19:18:30.655Z,54.07
2023-03-27T19:20:39.718Z,54.42
2023-03-27T19:22:59.142Z,54.54
2023-03-27T19:24:55.709Z,54.56
2023-03-27T19:26:48.649Z,54.75
2023-03-27T19:28:42.466Z,55.03
2023-03-27T19:30:35.508Z,55.05
2023-03-27T19:32:29.106Z,55.01
2023-03-27T19:34:32.742Z,55.20
2023-03-27T19:36:34.699Z,55.41
2023-03-27T19:38:27.644Z,55.70
2023-03-27T19:40:20.812Z,55.80
2023-03-27T19:42:14.809Z,56.03
2023-03-27T19:44:07.822Z,56.02
2023-03-27T19:46:14.795Z,56.20
2023-03-27T19:48:09.030Z,56.16
2023-03-27T19:50:02.787Z,56.39
2023-03-27T19:52:12.076Z,56.36
2023-03-27T19:54:06.000Z,56.46
2023-03-27T19:56:00.122Z,56.71
2023-03-27T19:57:56.244Z,57.02
2023-03-27T19:59:49.541Z,57.38
2023-03-27T20:01:44.497Z,57.65
2023-03-27T20:03:38.714Z,57.87
2023-03-27T20:05:32.682Z,58.19
2023-03-27T20:07:30.140Z,58.10
2023-03-27T20:09:27.674Z,58.25
2023-03-27T20:11:27.585Z,58.02
2023-03-27T20:13:22.276Z,57.99
2023-03-27T20:15:17.776Z,58.07
2023-03-27T20:17:27.615Z,58.36
2023-03-27T20:19:22.773Z,58.39
2023-03-27T20:21:17.263Z,58.54
2023-03-27T20:23:12.399Z,58.57
2023-03-27T20:25:06.146Z,58.61
2023-03-27T20:26:59.925Z,58.72
2023-03-27T20:28:53.088Z,58.50
2023-03-27T20:30:46.028Z,58.47
2023-03-27T20:32:39.003Z,58.37
2023-03-27T20:34:32.433Z,58.26
2023-03-27T20:36:25.487Z,58.22
2023-03-27T20:38:19.659Z,58.27
2023-03-27T20:40:14.044Z,58.28
2023-03-27T20:42:07.775Z,58.12
2023-03-27T20:44:00.664Z,58.07
2023-03-27T20:45:55.585Z,58.15
2023-03-27T20:47:50.306Z,58.10
2023-03-27T20:49:44.110Z,57.87
2023-03-27T20:51:38.287Z,57.75
2023-03-27T20:53:33.638Z,57.57
2023-03-27T20:57:25.849Z,57.32
2023-03-27T20:59:18.786Z,57.34
2023-03-27T21:01:11.768Z,57.30
2023-03-27T21:03:04.878Z,57.42
2023-03-27T21:04:57.947Z,57.32
2023-03-27T21:06:51.703Z,57.58
2023-03-27T21:08:44.753Z,57.88
2023-03-27T21:10:39.045Z,58.41
2023-03-27T21:12:32.492Z,57.91
2023-03-27T21:14:26.314Z,57.82
2023-03-27T21:16:19.631Z,57.67
2023-03-27T21:18:13.089Z,57.53
2023-03-27T21:20:08.161Z,57.15
2023-03-27T21:22:01.154Z,57.19
2023-03-27T21:23:54.380Z,57.00
2023-03-27T21:25:47.534Z,56.94
2023-03-27T21:27:41.301Z,56.77
2023-03-27T21:29:34.162Z,56.76
2023-03-27T21:31:33.569Z,56.90
2023-03-27T21:33:26.599Z,56.81
2023-03-27T21:35:19.560Z,56.63
2023-03-27T21:37:12.547Z,56.80
2023-03-27T21:39:06.723Z,56.75
2023-03-27T21:41:02.313Z,56.82
2023-03-27T21:42:55.537Z,56.63
2023-03-27T21:44:52.533Z,56.64
2023-03-27T21:46:50.372Z,56.55
2023-03-27T21:48:47.605Z,56.46
2023-03-27T21:50:40.794Z,56.62
2023-03-27T21:52:33.663Z,56.60
2023-03-27T21:54:26.456Z,56.80
2023-03-27T21:56:22.150Z,57.05
2023-03-27T21:58:15.811Z,57.08
2023-03-27T22:00:09.272Z,57.39
2023-03-27T22:02:08.572Z,57.69
2023-03-27T22:04:02.313Z,57.99
2023-03-27T22:06:10.189Z,58.23
2023-03-27T22:08:05.542Z,58.43
2023-03-27T22:09:58.387Z,58.64
2023-03-27T22:11:51.229Z,58.85
2023-03-27T22:13:44.283Z,59.12
2023-03-27T22:15:37.368Z,59.26
2023-03-27T22:17:30.187Z,59.58
2023-03-27T22:19:23.231Z,59.96
2023-03-27T22:21:25.430Z,60.47
2023-03-27T22:23:18.260Z,60.93
2023-03-27T22:25:11.276Z,61.21
2023-03-27T22:27:04.654Z,61.52
2023-03-27T22:28:58.002Z,61.85
2023-03-27T22:30:50.914Z,62.29
2023-03-27T22:32:44.044Z,62.53
2023-03-27T22:34:36.949Z,62.83
2023-03-27T22:36:30.877Z,63.21
2023-03-27T22:38:23.866Z,63.60
2023-03-27T22:40:16.733Z,64.06
2023-03-27T22:42:09.726Z,64.70
2023-03-27T22:44:02.707Z,65.35
2023-03-27T22:45:55.658Z,65.51
2023-03-27T22:47:48.510Z,66.06
2023-03-27T22:49:41.449Z,66.59
2023-03-27T22:51:34.204Z,66.88
2023-03-27T22:53:27.660Z,67.16
2023-03-27T22:55:20.497Z,67.60
2023-03-27T22:57:13.398Z,67.87
2023-03-27T22:59:06.667Z,67.96
2023-03-27T23:00:59.848Z,68.19
2023-03-27T23:02:52.784Z,68.46
2023-03-27T23:04:45.623Z,68.74
2023-03-27T23:06:39.232Z,69.02
2023-03-27T23:08:32.470Z,69.61
2023-03-27T23:10:25.766Z,69.51
2023-03-27T23:12:18.500Z,70.12
2023-03-27T23:14:12.084Z,70.55
2023-03-27T23:16:05.405Z,70.56
2023-03-27T23:17:58.270Z,71.37
2023-03-27T23:19:51.492Z,71.25
2023-03-27T23:21:44.248Z,71.46
2023-03-27T23:23:40.322Z,72.16
2023-03-27T23:25:33.081Z,72.74
2023-03-27T23:27:26.314Z,72.81
2023-03-27T23:29:19.218Z,72.89
2023-03-27T23:31:19.948Z,72.96
2023-03-27T23:33:12.823Z,72.88
2023-03-27T23:35:08.124Z,73.29
2023-03-27T23:37:01.033Z,73.77
2023-03-27T23:38:53.896Z,73.72
2023-03-27T23:40:47.028Z,73.58
2023-03-27T23:42:40.081Z,73.78
2023-03-27T23:44:33.028Z,73.36
2023-03-27T23:46:25.927Z,73.23
2023-03-27T23:48:19.028Z,73.92
2023-03-27T23:50:11.874Z,73.73
2023-03-27T23:52:04.815Z,74.43
2023-03-27T23:53:57.660Z,76.35
2023-03-27T23:55:50.527Z,78.48
2023-03-27T23:57:43.464Z,78.75
2023-03-27T23:59:38.136Z,80.19
